Wolke Sonne

Wetter Roßtal

Gehe zu: Ammerndorf

Tageswerte vom Mittwoch, 29.05.2024

Optionen

Tag:
Erweitert:

Alle Werte vom Mittwoch, 29.05.2024

Einen Moment bitte, die Daten werden aufbereitet...

UhrzeitTemperaturLuftfeuchteLuftdruckNiederschlagEvapotranspirationNiederschlag?WindWindböenRegenrateWindrichtungHelligkeitSolarstrahlungUV-IndexSonne?Feinstaub 10µmFeinstaub 2,5µmFeinstaub 1µmLuftqualitätsindexUhrzeit
Diagramm IconDiagramm IconDiagramm IconDiagramm IconDiagramm IconDiagramm IconDiagramm IconDiagramm IconDiagramm IconDiagramm IconDiagramm IconDiagramm IconDiagramm IconDiagramm IconDiagramm IconDiagramm IconDiagramm IconDiagramm Icon
00:0010,7 °C 78 % 1019,0 hPa 0,0 mm 0,0 mm nein 3,2 km/h 4,8 km/h 0,0 mm/h WSW 0,000 klux 0,0 W/qm 0,0 nein 5,50 µg/m³ 3,00 µg/m³ 2,50 µg/m³ 16 AQI 00:00
00:0510,5 °C 78 % 1019,1 hPa 0,0 mm 0,0 mm nein 4,8 km/h 6,4 km/h 0,0 mm/h WSW 0,000 klux 0,0 W/qm 0,0 nein 6,00 µg/m³ 3,50 µg/m³ 2,00 µg/m³ 19 AQI 00:05
00:1010,5 °C 78 % 1019,1 hPa 0,0 mm 0,0 mm nein 3,2 km/h 4,8 km/h 0,0 mm/h WSW 0,000 klux 0,0 W/qm 0,0 nein 4,00 µg/m³ 2,50 µg/m³ 2,00 µg/m³ 14 AQI 00:10
00:1510,5 °C 78 % 1019,1 hPa 0,0 mm 0,0 mm nein 4,8 km/h 6,4 km/h 0,0 mm/h WSW 0,000 klux 0,0 W/qm 0,0 nein 5,00 µg/m³ 3,00 µg/m³ 2,00 µg/m³ 16 AQI 00:15
00:2010,5 °C 78 % 1019,1 hPa 0,0 mm 0,0 mm nein 3,2 km/h 6,4 km/h 0,0 mm/h WSW 0,000 klux 0,0 W/qm 0,0 nein 4,50 µg/m³ 3,00 µg/m³ 2,00 µg/m³ 16 AQI 00:20
00:2510,4 °C 78 % 1019,1 hPa 0,0 mm 0,0 mm nein 3,2 km/h 6,4 km/h 0,0 mm/h WSW 0,000 klux 0,0 W/qm 0,0 nein 4,50 µg/m³ 2,50 µg/m³ 2,00 µg/m³ 14 AQI 00:25
00:3010,3 °C 79 % 1019,0 hPa 0,0 mm 0,0 mm nein 3,2 km/h 6,4 km/h 0,0 mm/h WSW 0,000 klux 0,0 W/qm 0,0 nein 4,00 µg/m³ 2,50 µg/m³ 2,00 µg/m³ 14 AQI 00:30
00:3510,2 °C 79 % 1019,0 hPa 0,0 mm 0,0 mm nein 1,6 km/h 4,8 km/h 0,0 mm/h WSW 0,000 klux 0,0 W/qm 0,0 nein 5,50 µg/m³ 3,00 µg/m³ 2,00 µg/m³ 16 AQI 00:35
00:4010,2 °C 79 % 1019,0 hPa 0,0 mm 0,0 mm nein 1,6 km/h 3,2 km/h 0,0 mm/h WSW 0,000 klux 0,0 W/qm 0,0 nein 4,50 µg/m³ 3,00 µg/m³ 2,00 µg/m³ 16 AQI 00:40
00:459,9 °C 80 % 1019,0 hPa 0,0 mm 0,0 mm nein 3,2 km/h 6,4 km/h 0,0 mm/h WSW 0,000 klux 0,0 W/qm 0,0 nein 4,50 µg/m³ 2,50 µg/m³ 2,00 µg/m³ 14 AQI 00:45
00:509,7 °C 81 % 1019,1 hPa 0,0 mm 0,0 mm nein 4,8 km/h 8,0 km/h 0,0 mm/h WSW 0,000 klux 0,0 W/qm 0,0 nein 4,00 µg/m³ 2,50 µg/m³ 2,00 µg/m³ 14 AQI 00:50
00:559,8 °C 81 % 1019,0 hPa 0,0 mm 0,0 mm nein 6,4 km/h 12,9 km/h 0,0 mm/h WSW 0,000 klux 0,0 W/qm 0,0 nein 4,00 µg/m³ 2,50 µg/m³ 2,00 µg/m³ 14 AQI 00:55
01:009,8 °C 81 % 1019,0 hPa 0,0 mm 0,0 mm nein 4,8 km/h 9,7 km/h 0,0 mm/h WSW 0,000 klux 0,0 W/qm 0,0 nein 5,00 µg/m³ 2,50 µg/m³ 2,00 µg/m³ 14 AQI 01:00
01:059,9 °C 81 % 1018,9 hPa 0,0 mm 0,0 mm nein 4,8 km/h 8,0 km/h 0,0 mm/h WSW 0,000 klux 0,0 W/qm 0,0 nein 4,50 µg/m³ 2,50 µg/m³ 2,00 µg/m³ 14 AQI 01:05
01:1010,0 °C 80 % 1018,8 hPa 0,0 mm 0,0 mm nein 4,8 km/h 8,0 km/h 0,0 mm/h WSW 0,000 klux 0,0 W/qm 0,0 nein 4,00 µg/m³ 2,50 µg/m³ 2,00 µg/m³ 14 AQI 01:10
01:1510,0 °C 80 % 1018,7 hPa 0,0 mm 0,0 mm nein 4,8 km/h 8,0 km/h 0,0 mm/h WSW 0,000 klux 0,0 W/qm 0,0 nein 4,00 µg/m³ 2,50 µg/m³ 2,00 µg/m³ 14 AQI 01:15
01:2010,0 °C 80 % 1018,7 hPa 0,0 mm 0,0 mm nein 4,8 km/h 8,0 km/h 0,0 mm/h WSW 0,000 klux 0,0 W/qm 0,0 nein 5,00 µg/m³ 2,50 µg/m³ 2,00 µg/m³ 14 AQI 01:20
01:2510,1 °C 80 % 1018,6 hPa 0,0 mm 0,0 mm nein 4,8 km/h 8,0 km/h 0,0 mm/h WSW 0,000 klux 0,0 W/qm 0,0 nein 5,50 µg/m³ 3,00 µg/m³ 2,00 µg/m³ 16 AQI 01:25
01:3010,1 °C 80 % 1018,5 hPa 0,0 mm 0,0 mm nein 4,8 km/h 6,4 km/h 0,0 mm/h WSW 0,000 klux 0,0 W/qm 0,0 nein 4,00 µg/m³ 2,50 µg/m³ 2,00 µg/m³ 14 AQI 01:30
01:3510,1 °C 79 % 1018,5 hPa 0,0 mm 0,0 mm nein 4,8 km/h 8,0 km/h 0,0 mm/h WSW 0,000 klux 0,0 W/qm 0,0 nein 4,50 µg/m³ 2,50 µg/m³ 2,00 µg/m³ 14 AQI 01:35
01:4010,2 °C 79 % 1018,4 hPa 0,0 mm 0,0 mm nein 4,8 km/h 8,0 km/h 0,0 mm/h WSW 0,000 klux 0,0 W/qm 0,0 nein 3,50 µg/m³ 2,50 µg/m³ 2,00 µg/m³ 14 AQI 01:40
01:4510,2 °C 79 % 1018,4 hPa 0,0 mm 0,0 mm nein 4,8 km/h 6,4 km/h 0,0 mm/h WSW 0,000 klux 0,0 W/qm 0,0 nein 5,00 µg/m³ 2,50 µg/m³ 2,00 µg/m³ 14 AQI 01:45
01:5010,3 °C 79 % 1018,4 hPa 0,0 mm 0,0 mm nein 4,8 km/h 8,0 km/h 0,0 mm/h WSW 0,000 klux 0,0 W/qm 0,0 nein 4,00 µg/m³ 2,50 µg/m³ 2,00 µg/m³ 14 AQI 01:50
01:5510,4 °C 79 % 1018,2 hPa 0,0 mm 0,0 mm nein 4,8 km/h 6,4 km/h 0,0 mm/h WSW 0,000 klux 0,0 W/qm 0,0 nein 3,00 µg/m³ 2,00 µg/m³ 2,00 µg/m³ 11 AQI 01:55
UhrzeitTemperaturLuftfeuchteLuftdruckNiederschlagEvapotranspirationNiederschlag?WindWindböenRegenrateWindrichtungHelligkeitSolarstrahlungUV-IndexSonne?Feinstaub 10µmFeinstaub 2,5µmFeinstaub 1µmLuftqualitätsindexUhrzeit
02:0010,4 °C 79 % 1018,2 hPa 0,0 mm 0,0 mm nein 4,8 km/h 6,4 km/h 0,0 mm/h WSW 0,000 klux 0,0 W/qm 0,0 nein 5,00 µg/m³ 3,00 µg/m³ 2,00 µg/m³ 16 AQI 02:00
02:0510,5 °C 79 % 1018,1 hPa 0,0 mm 0,0 mm nein 4,8 km/h 8,0 km/h 0,0 mm/h WSW 0,000 klux 0,0 W/qm 0,0 nein 4,00 µg/m³ 2,00 µg/m³ 2,00 µg/m³ 11 AQI 02:05
02:1010,7 °C 78 % 1018,1 hPa 0,0 mm 0,0 mm nein 4,8 km/h 8,0 km/h 0,0 mm/h WSW 0,000 klux 0,0 W/qm 0,0 nein 4,50 µg/m³ 2,50 µg/m³ 2,00 µg/m³ 14 AQI 02:10
02:1510,6 °C 79 % 1018,1 hPa 0,0 mm 0,0 mm nein 4,8 km/h 6,4 km/h 0,0 mm/h WSW 0,000 klux 0,0 W/qm 0,0 nein 4,50 µg/m³ 2,50 µg/m³ 2,00 µg/m³ 14 AQI 02:15
02:2010,6 °C 79 % 1018,1 hPa 0,0 mm 0,0 mm nein 3,2 km/h 6,4 km/h 0,0 mm/h WSW 0,000 klux 0,0 W/qm 0,0 nein 4,00 µg/m³ 2,00 µg/m³ 2,00 µg/m³ 11 AQI 02:20
02:2510,6 °C 79 % 1018,0 hPa 0,0 mm 0,0 mm nein 0,0 km/h 1,6 km/h 0,0 mm/h WSW 0,000 klux 0,0 W/qm 0,0 nein 5,00 µg/m³ 3,00 µg/m³ 2,00 µg/m³ 16 AQI 02:25
02:3010,6 °C 80 % 1018,0 hPa 0,0 mm 0,0 mm nein 0,0 km/h 0,0 km/h 0,0 mm/h N 0,000 klux 0,0 W/qm 0,0 nein 3,50 µg/m³ 2,50 µg/m³ 2,00 µg/m³ 14 AQI 02:30
02:3510,4 °C 80 % 1017,9 hPa 0,0 mm 0,0 mm nein 0,0 km/h 0,0 km/h 0,0 mm/h N 0,000 klux 0,0 W/qm 0,0 nein 4,00 µg/m³ 2,50 µg/m³ 2,00 µg/m³ 14 AQI 02:35
02:4010,4 °C 81 % 1017,9 hPa 0,0 mm 0,0 mm nein 0,0 km/h 3,2 km/h 0,0 mm/h WSW 0,000 klux 0,0 W/qm 0,0 nein 4,00 µg/m³ 2,50 µg/m³ 2,00 µg/m³ 14 AQI 02:40
02:4510,3 °C 81 % 1017,8 hPa 0,0 mm 0,0 mm nein 1,6 km/h 4,8 km/h 0,0 mm/h WSW 0,000 klux 0,0 W/qm 0,0 nein 6,50 µg/m³ 3,00 µg/m³ 2,00 µg/m³ 16 AQI 02:45
02:5010,4 °C 80 % 1017,8 hPa 0,0 mm 0,0 mm nein 4,8 km/h 9,7 km/h 0,0 mm/h WSW 0,000 klux 0,0 W/qm 0,0 nein 4,50 µg/m³ 2,50 µg/m³ 2,00 µg/m³ 14 AQI 02:50
02:5510,6 °C 79 % 1017,7 hPa 0,0 mm 0,0 mm nein 4,8 km/h 9,7 km/h 0,0 mm/h WSW 0,000 klux 0,0 W/qm 0,0 nein 4,00 µg/m³ 2,50 µg/m³ 2,00 µg/m³ 14 AQI 02:55
03:0010,8 °C 78 % 1017,7 hPa 0,0 mm 0,0 mm nein 4,8 km/h 8,0 km/h 0,0 mm/h WSW 0,000 klux 0,0 W/qm 0,0 nein 4,00 µg/m³ 2,50 µg/m³ 2,00 µg/m³ 14 AQI 03:00
03:0510,9 °C 78 % 1017,5 hPa 0,0 mm 0,0 mm nein 6,4 km/h 8,0 km/h 0,0 mm/h WSW 0,000 klux 0,0 W/qm 0,0 nein 4,00 µg/m³ 2,00 µg/m³ 2,00 µg/m³ 11 AQI 03:05
03:1010,9 °C 78 % 1017,5 hPa 0,0 mm 0,0 mm nein 4,8 km/h 11,3 km/h 0,0 mm/h WSW 0,000 klux 0,0 W/qm 0,0 nein 4,50 µg/m³ 2,50 µg/m³ 2,00 µg/m³ 14 AQI 03:10
03:1510,9 °C 78 % 1017,5 hPa 0,0 mm 0,0 mm nein 4,8 km/h 8,0 km/h 0,0 mm/h WSW 0,000 klux 0,0 W/qm 0,0 nein 6,00 µg/m³ 3,00 µg/m³ 2,00 µg/m³ 16 AQI 03:15
03:2010,9 °C 78 % 1017,4 hPa 0,0 mm 0,0 mm nein 4,8 km/h 8,0 km/h 0,0 mm/h WSW 0,000 klux 0,0 W/qm 0,0 nein 5,00 µg/m³ 2,50 µg/m³ 2,00 µg/m³ 14 AQI 03:20
03:2511,0 °C 78 % 1017,4 hPa 0,0 mm 0,0 mm nein 4,8 km/h 9,7 km/h 0,0 mm/h WSW 0,000 klux 0,0 W/qm 0,0 nein 4,00 µg/m³ 2,50 µg/m³ 2,00 µg/m³ 14 AQI 03:25
03:3011,1 °C 78 % 1017,4 hPa 0,0 mm 0,0 mm nein 4,8 km/h 8,0 km/h 0,0 mm/h WSW 0,000 klux 0,0 W/qm 0,0 nein 4,00 µg/m³ 2,50 µg/m³ 2,00 µg/m³ 14 AQI 03:30
03:3511,1 °C 77 % 1017,3 hPa 0,0 mm 0,0 mm nein 4,8 km/h 11,3 km/h 0,0 mm/h WSW 0,000 klux 0,0 W/qm 0,0 nein 4,00 µg/m³ 2,50 µg/m³ 2,00 µg/m³ 14 AQI 03:35
03:4011,2 °C 77 % 1017,3 hPa 0,0 mm 0,0 mm nein 4,8 km/h 11,3 km/h 0,0 mm/h WSW 0,000 klux 0,0 W/qm 0,0 nein 4,50 µg/m³ 2,50 µg/m³ 2,00 µg/m³ 14 AQI 03:40
03:4511,2 °C 78 % 1017,2 hPa 0,0 mm 0,0 mm nein 4,8 km/h 11,3 km/h 0,0 mm/h WSW 0,000 klux 0,0 W/qm 0,0 nein 4,00 µg/m³ 2,50 µg/m³ 2,00 µg/m³ 14 AQI 03:45
03:5011,2 °C 78 % 1017,2 hPa 0,0 mm 0,0 mm nein 4,8 km/h 9,7 km/h 0,0 mm/h WSW 0,000 klux 0,0 W/qm 0,0 nein 4,00 µg/m³ 2,50 µg/m³ 2,00 µg/m³ 14 AQI 03:50
03:5511,3 °C 78 % 1017,0 hPa 0,0 mm 0,0 mm nein 4,8 km/h 9,7 km/h 0,0 mm/h WSW 0,000 klux 0,0 W/qm 0,0 nein 4,50 µg/m³ 3,00 µg/m³ 2,00 µg/m³ 16 AQI 03:55
UhrzeitTemperaturLuftfeuchteLuftdruckNiederschlagEvapotranspirationNiederschlag?WindWindböenRegenrateWindrichtungHelligkeitSolarstrahlungUV-IndexSonne?Feinstaub 10µmFeinstaub 2,5µmFeinstaub 1µmLuftqualitätsindexUhrzeit
04:0011,3 °C 78 % 1017,0 hPa 0,0 mm 0,0 mm nein 4,8 km/h 8,0 km/h 0,0 mm/h WSW 0,000 klux 0,0 W/qm 0,0 nein 4,00 µg/m³ 2,50 µg/m³ 2,00 µg/m³ 14 AQI 04:00
04:0511,3 °C 78 % 1017,0 hPa 0,0 mm 0,0 mm nein 4,8 km/h 8,0 km/h 0,0 mm/h WSW 0,000 klux 0,0 W/qm 0,0 nein 4,00 µg/m³ 2,50 µg/m³ 2,00 µg/m³ 14 AQI 04:05
04:1011,3 °C 78 % 1017,0 hPa 0,0 mm 0,0 mm nein 4,8 km/h 9,7 km/h 0,0 mm/h WSW 0,000 klux 0,0 W/qm 0,0 nein 4,00 µg/m³ 2,50 µg/m³ 2,00 µg/m³ 14 AQI 04:10
04:1511,3 °C 78 % 1016,9 hPa 0,0 mm 0,0 mm nein 4,8 km/h 8,0 km/h 0,0 mm/h W 0,000 klux 0,0 W/qm 0,0 nein 4,00 µg/m³ 2,50 µg/m³ 2,00 µg/m³ 14 AQI 04:15
04:2011,3 °C 78 % 1016,8 hPa 0,0 mm 0,0 mm nein 4,8 km/h 9,7 km/h 0,0 mm/h W 0,000 klux 0,0 W/qm 0,0 nein 5,50 µg/m³ 3,00 µg/m³ 2,00 µg/m³ 16 AQI 04:20
04:2511,3 °C 78 % 1016,8 hPa 0,0 mm 0,0 mm nein 4,8 km/h 11,3 km/h 0,0 mm/h WSW 0,000 klux 0,0 W/qm 0,0 nein 4,50 µg/m³ 2,50 µg/m³ 2,00 µg/m³ 14 AQI 04:25
04:3011,2 °C 79 % 1016,7 hPa 0,0 mm 0,0 mm nein 4,8 km/h 8,0 km/h 0,0 mm/h WSW 0,000 klux 0,0 W/qm 0,0 nein 5,50 µg/m³ 3,00 µg/m³ 2,00 µg/m³ 16 AQI 04:30
04:3511,2 °C 79 % 1016,7 hPa 0,0 mm 0,0 mm nein 4,8 km/h 9,7 km/h 0,0 mm/h WSW 0,000 klux 0,0 W/qm 0,0 nein 6,00 µg/m³ 3,50 µg/m³ 2,00 µg/m³ 19 AQI 04:35
04:4011,2 °C 79 % 1016,6 hPa 0,0 mm 0,0 mm nein 3,2 km/h 8,0 km/h 0,0 mm/h WSW 0,000 klux 0,0 W/qm 0,0 nein 4,50 µg/m³ 3,00 µg/m³ 2,50 µg/m³ 16 AQI 04:40
04:4511,2 °C 79 % 1016,6 hPa 0,0 mm 0,0 mm nein 4,8 km/h 8,0 km/h 0,0 mm/h WSW 0,000 klux 0,0 W/qm 0,0 nein 5,00 µg/m³ 3,00 µg/m³ 2,00 µg/m³ 16 AQI 04:45
04:5011,2 °C 79 % 1016,6 hPa 0,0 mm 0,0 mm nein 3,2 km/h 8,0 km/h 0,0 mm/h WSW 0,000 klux 0,0 W/qm 0,0 nein 5,50 µg/m³ 3,00 µg/m³ 2,50 µg/m³ 16 AQI 04:50
04:5511,2 °C 80 % 1016,5 hPa 0,0 mm 0,0 mm nein 3,2 km/h 8,0 km/h 0,0 mm/h WSW 0,000 klux 0,0 W/qm 0,0 nein 5,50 µg/m³ 3,50 µg/m³ 2,50 µg/m³ 19 AQI 04:55
05:0011,2 °C 80 % 1016,5 hPa 0,0 mm 0,0 mm nein 3,2 km/h 8,0 km/h 0,0 mm/h WSW 0,000 klux 0,0 W/qm 0,0 nein 4,50 µg/m³ 2,50 µg/m³ 2,00 µg/m³ 14 AQI 05:00
05:0511,2 °C 81 % 1016,4 hPa 0,0 mm 0,0 mm nein 4,8 km/h 9,7 km/h 0,0 mm/h WSW 0,000 klux 0,0 W/qm 0,0 nein 5,00 µg/m³ 3,50 µg/m³ 2,50 µg/m³ 19 AQI 05:05
05:1011,2 °C 81 % 1016,4 hPa 0,0 mm 0,0 mm nein 4,8 km/h 8,0 km/h 0,0 mm/h WSW 0,000 klux 0,0 W/qm 0,0 nein 5,00 µg/m³ 3,00 µg/m³ 2,50 µg/m³ 16 AQI 05:10
05:1511,3 °C 81 % 1016,4 hPa 0,0 mm 0,0 mm nein 3,2 km/h 9,7 km/h 0,0 mm/h SW 0,000 klux 0,0 W/qm 0,0 nein 7,00 µg/m³ 3,50 µg/m³ 2,00 µg/m³ 19 AQI 05:15
05:2011,3 °C 81 % 1016,3 hPa 0,0 mm 0,0 mm nein 3,2 km/h 8,0 km/h 0,0 mm/h WSW 0,000 klux 0,0 W/qm 0,0 nein 5,00 µg/m³ 3,00 µg/m³ 2,00 µg/m³ 16 AQI 05:20
05:2511,3 °C 81 % 1016,3 hPa 0,0 mm 0,0 mm nein 4,8 km/h 8,0 km/h 0,0 mm/h WSW 0,000 klux 0,0 W/qm 0,0 nein 5,50 µg/m³ 3,50 µg/m³ 2,50 µg/m³ 19 AQI 05:25
05:3011,3 °C 81 % 1016,4 hPa 0,0 mm 0,0 mm nein 3,2 km/h 6,4 km/h 0,0 mm/h WSW 0,000 klux 3,0 W/qm 0,0 nein 6,00 µg/m³ 4,00 µg/m³ 2,50 µg/m³ 22 AQI 05:30
05:3511,4 °C 81 % 1016,3 hPa 0,0 mm 0,0 mm nein 3,2 km/h 8,0 km/h 0,0 mm/h WSW 0,000 klux 6,0 W/qm 0,0 nein 6,50 µg/m³ 3,50 µg/m³ 2,50 µg/m³ 19 AQI 05:35
05:4011,5 °C 81 % 1016,2 hPa 0,0 mm 0,0 mm nein 3,2 km/h 6,4 km/h 0,0 mm/h WSW 0,000 klux 9,0 W/qm 0,0 nein 5,00 µg/m³ 3,50 µg/m³ 2,50 µg/m³ 19 AQI 05:40
05:4511,5 °C 81 % 1016,2 hPa 0,0 mm 0,0 mm nein 1,6 km/h 4,8 km/h 0,0 mm/h WSW 0,000 klux 11,0 W/qm 0,0 nein 6,50 µg/m³ 4,00 µg/m³ 2,50 µg/m³ 22 AQI 05:45
05:5011,5 °C 82 % 1016,1 hPa 0,0 mm 0,0 mm nein 1,6 km/h 6,4 km/h 0,0 mm/h WSW 0,000 klux 12,0 W/qm 0,0 nein 7,00 µg/m³ 4,00 µg/m³ 2,50 µg/m³ 22 AQI 05:50
05:5511,6 °C 82 % 1016,0 hPa 0,0 mm 0,0 mm nein 3,2 km/h 6,4 km/h 0,0 mm/h WSW 0,000 klux 12,0 W/qm 0,0 nein 4,50 µg/m³ 3,00 µg/m³ 2,50 µg/m³ 16 AQI 05:55
UhrzeitTemperaturLuftfeuchteLuftdruckNiederschlagEvapotranspirationNiederschlag?WindWindböenRegenrateWindrichtungHelligkeitSolarstrahlungUV-IndexSonne?Feinstaub 10µmFeinstaub 2,5µmFeinstaub 1µmLuftqualitätsindexUhrzeit
06:0011,6 °C 82 % 1016,0 hPa 0,0 mm 0,0 mm nein 1,6 km/h 4,8 km/h 0,0 mm/h WSW 0,000 klux 14,0 W/qm 0,0 nein 8,00 µg/m³ 4,50 µg/m³ 2,50 µg/m³ 25 AQI 06:00
06:0511,6 °C 82 % 1016,0 hPa 0,0 mm 0,0 mm nein 3,2 km/h 6,4 km/h 0,0 mm/h WSW 0,000 klux 17,0 W/qm 0,0 nein 7,00 µg/m³ 4,00 µg/m³ 2,50 µg/m³ 22 AQI 06:05
06:1011,7 °C 82 % 1016,0 hPa 0,0 mm 0,0 mm nein 3,2 km/h 11,3 km/h 0,0 mm/h SW 0,000 klux 21,0 W/qm 0,0 nein 6,50 µg/m³ 3,50 µg/m³ 2,50 µg/m³ 19 AQI 06:10
06:1511,7 °C 82 % 1016,0 hPa 0,0 mm 0,0 mm nein 3,2 km/h 8,0 km/h 0,0 mm/h SW 0,000 klux 25,0 W/qm 0,0 nein 7,50 µg/m³ 4,00 µg/m³ 2,50 µg/m³ 22 AQI 06:15
06:2011,7 °C 82 % 1015,9 hPa 0,0 mm 0,0 mm nein 3,2 km/h 9,7 km/h 0,0 mm/h WSW 0,000 klux 31,0 W/qm 0,0 nein 5,50 µg/m³ 3,50 µg/m³ 2,50 µg/m³ 19 AQI 06:20
06:2511,7 °C 82 % 1015,9 hPa 0,0 mm 0,0 mm nein 4,8 km/h 11,3 km/h 0,0 mm/h WSW 0,000 klux 40,0 W/qm 0,0 nein 5,50 µg/m³ 3,50 µg/m³ 2,50 µg/m³ 19 AQI 06:25
06:3011,8 °C 82 % 1015,8 hPa 0,0 mm 0,0 mm nein 6,4 km/h 12,9 km/h 0,0 mm/h WSW 0,000 klux 49,0 W/qm 0,0 nein 6,50 µg/m³ 3,50 µg/m³ 2,50 µg/m³ 19 AQI 06:30
06:3511,9 °C 82 % 1015,8 hPa 0,0 mm 0,0 mm nein 4,8 km/h 12,9 km/h 0,0 mm/h SW 0,000 klux 61,0 W/qm 0,0 nein 5,50 µg/m³ 3,50 µg/m³ 2,50 µg/m³ 19 AQI 06:35
06:4011,9 °C 82 % 1015,8 hPa 0,0 mm 0,0 mm nein 4,8 km/h 11,3 km/h 0,0 mm/h WSW 0,000 klux 71,0 W/qm 0,0 nein 6,00 µg/m³ 3,50 µg/m³ 2,50 µg/m³ 19 AQI 06:40
06:4512,1 °C 82 % 1015,6 hPa 0,0 mm 0,0 mm nein 6,4 km/h 12,9 km/h 0,0 mm/h W 0,000 klux 82,0 W/qm 0,0 nein 7,00 µg/m³ 4,00 µg/m³ 2,50 µg/m³ 22 AQI 06:45
06:5012,2 °C 82 % 1015,5 hPa 0,0 mm 0,0 mm nein 4,8 km/h 16,1 km/h 0,0 mm/h WSW 0,000 klux 95,0 W/qm 0,0 nein 5,50 µg/m³ 3,00 µg/m³ 2,50 µg/m³ 16 AQI 06:50
06:5512,3 °C 82 % 1015,5 hPa 0,0 mm 0,0 mm nein 6,4 km/h 16,1 km/h 0,0 mm/h WSW 0,000 klux 111,0 W/qm 0,0 nein 6,50 µg/m³ 4,00 µg/m³ 2,50 µg/m³ 22 AQI 06:55
07:0012,4 °C 82 % 1015,4 hPa 0,0 mm 0,1 mm nein 6,4 km/h 11,3 km/h 0,0 mm/h WSW 0,000 klux 130,0 W/qm 0,0 nein 6,50 µg/m³ 4,00 µg/m³ 2,50 µg/m³ 22 AQI 07:00
07:0512,5 °C 82 % 1015,3 hPa 0,0 mm 0,0 mm nein 8,0 km/h 14,5 km/h 0,0 mm/h WSW 0,000 klux 146,0 W/qm 0,0 nein 7,50 µg/m³ 4,00 µg/m³ 2,50 µg/m³ 22 AQI 07:05
07:1012,6 °C 82 % 1015,2 hPa 0,0 mm 0,0 mm nein 6,4 km/h 16,1 km/h 0,0 mm/h WSW 0,000 klux 161,0 W/qm 0,0 nein 7,50 µg/m³ 4,50 µg/m³ 2,00 µg/m³ 25 AQI 07:10
07:1512,7 °C 82 % 1015,2 hPa 0,0 mm 0,0 mm nein 6,4 km/h 12,9 km/h 0,0 mm/h WSW 0,000 klux 176,0 W/qm 0,0 nein 9,00 µg/m³ 4,50 µg/m³ 2,50 µg/m³ 25 AQI 07:15
07:2012,8 °C 82 % 1015,2 hPa 0,0 mm 0,0 mm nein 6,4 km/h 9,7 km/h 0,0 mm/h WSW 0,000 klux 183,0 W/qm 0,0 nein 7,00 µg/m³ 4,50 µg/m³ 2,50 µg/m³ 25 AQI 07:20
07:2513,0 °C 81 % 1015,1 hPa 0,0 mm 0,0 mm nein 4,8 km/h 12,9 km/h 0,0 mm/h WSW 0,000 klux 178,0 W/qm 0,0 nein 6,50 µg/m³ 4,00 µg/m³ 2,50 µg/m³ 22 AQI 07:25
07:3013,1 °C 81 % 1015,0 hPa 0,0 mm 0,0 mm nein 6,4 km/h 12,9 km/h 0,0 mm/h WSW 0,000 klux 174,0 W/qm 0,0 nein 4,50 µg/m³ 3,00 µg/m³ 2,00 µg/m³ 16 AQI 07:30
07:3513,2 °C 81 % 1015,0 hPa 0,0 mm 0,0 mm nein 4,8 km/h 12,9 km/h 0,0 mm/h WSW 0,000 klux 167,0 W/qm 0,0 nein 6,00 µg/m³ 3,50 µg/m³ 2,50 µg/m³ 19 AQI 07:35
07:4013,2 °C 81 % 1015,0 hPa 0,0 mm 0,0 mm nein 4,8 km/h 14,5 km/h 0,0 mm/h W 0,000 klux 163,0 W/qm 0,0 nein 6,00 µg/m³ 3,50 µg/m³ 2,50 µg/m³ 19 AQI 07:40
07:4513,3 °C 81 % 1015,0 hPa 0,0 mm 0,0 mm nein 6,4 km/h 12,9 km/h 0,0 mm/h WSW 0,000 klux 174,0 W/qm 0,0 nein 5,50 µg/m³ 3,00 µg/m³ 2,00 µg/m³ 16 AQI 07:45
07:5013,5 °C 81 % 1014,9 hPa 0,0 mm 0,0 mm nein 6,4 km/h 12,9 km/h 0,0 mm/h WSW 0,000 klux 186,0 W/qm 0,0 nein 6,00 µg/m³ 3,50 µg/m³ 2,50 µg/m³ 19 AQI 07:50
07:5513,7 °C 81 % 1014,8 hPa 0,0 mm 0,0 mm nein 4,8 km/h 11,3 km/h 0,0 mm/h WSW 0,000 klux 184,0 W/qm 0,0 nein 6,50 µg/m³ 4,00 µg/m³ 2,50 µg/m³ 22 AQI 07:55
UhrzeitTemperaturLuftfeuchteLuftdruckNiederschlagEvapotranspirationNiederschlag?WindWindböenRegenrateWindrichtungHelligkeitSolarstrahlungUV-IndexSonne?Feinstaub 10µmFeinstaub 2,5µmFeinstaub 1µmLuftqualitätsindexUhrzeit
08:0013,9 °C 81 % 1014,8 hPa 0,0 mm 0,1 mm nein 4,8 km/h 11,3 km/h 0,0 mm/h WSW 0,000 klux 164,0 W/qm 0,0 nein 9,50 µg/m³ 5,00 µg/m³ 2,50 µg/m³ 27 AQI 08:00
08:0513,9 °C 81 % 1014,8 hPa 0,0 mm 0,0 mm nein 4,8 km/h 9,7 km/h 0,0 mm/h WSW 0,000 klux 135,0 W/qm 0,0 nein 6,50 µg/m³ 3,50 µg/m³ 2,50 µg/m³ 19 AQI 08:05
08:1013,9 °C 81 % 1014,8 hPa 0,0 mm 0,0 mm nein 6,4 km/h 14,5 km/h 0,0 mm/h WSW 0,000 klux 119,0 W/qm 0,0 nein 7,50 µg/m³ 4,00 µg/m³ 2,50 µg/m³ 22 AQI 08:10
08:1513,9 °C 81 % 1014,7 hPa 0,0 mm 0,0 mm nein 6,4 km/h 11,3 km/h 0,0 mm/h WSW 0,000 klux 118,0 W/qm 0,0 nein 5,50 µg/m³ 3,50 µg/m³ 2,50 µg/m³ 19 AQI 08:15
08:2014,0 °C 81 % 1014,7 hPa 0,0 mm 0,0 mm nein 4,8 km/h 12,9 km/h 0,0 mm/h WSW 0,000 klux 141,0 W/qm 0,2 nein 7,00 µg/m³ 4,00 µg/m³ 2,50 µg/m³ 22 AQI 08:20
08:2514,1 °C 81 % 1014,6 hPa 0,0 mm 0,0 mm nein 6,4 km/h 12,9 km/h 0,0 mm/h W 0,000 klux 168,0 W/qm 0,6 nein 6,50 µg/m³ 4,00 µg/m³ 2,50 µg/m³ 22 AQI 08:25
08:3014,2 °C 81 % 1014,6 hPa 0,0 mm 0,0 mm nein 8,0 km/h 14,5 km/h 0,0 mm/h WSW 0,000 klux 197,0 W/qm 0,7 nein 7,50 µg/m³ 4,00 µg/m³ 2,50 µg/m³ 22 AQI 08:30
08:3514,3 °C 80 % 1014,6 hPa 0,0 mm 0,0 mm nein 6,4 km/h 9,7 km/h 0,0 mm/h WSW 0,000 klux 236,0 W/qm 0,7 nein 9,50 µg/m³ 5,00 µg/m³ 2,00 µg/m³ 27 AQI 08:35
08:4014,4 °C 80 % 1014,5 hPa 0,0 mm 0,0 mm nein 4,8 km/h 9,7 km/h 0,0 mm/h W 0,000 klux 217,0 W/qm 0,7 nein 7,00 µg/m³ 3,50 µg/m³ 2,00 µg/m³ 19 AQI 08:40
08:4514,6 °C 80 % 1014,5 hPa 0,0 mm 0,0 mm nein 3,2 km/h 12,9 km/h 0,0 mm/h W 0,000 klux 262,0 W/qm 0,9 nein 9,00 µg/m³ 4,50 µg/m³ 2,00 µg/m³ 25 AQI 08:45
08:5015,0 °C 79 % 1014,5 hPa 0,0 mm 0,0 mm nein 6,4 km/h 14,5 km/h 0,0 mm/h W 0,000 klux 389,0 W/qm 1,0 nein 8,50 µg/m³ 5,00 µg/m³ 2,50 µg/m³ 27 AQI 08:50
08:5515,1 °C 77 % 1014,4 hPa 0,0 mm 0,0 mm nein 4,8 km/h 12,9 km/h 0,0 mm/h WNW 0,000 klux 331,0 W/qm 0,9 nein 7,00 µg/m³ 4,00 µg/m³ 2,50 µg/m³ 22 AQI 08:55
09:0015,4 °C 78 % 1014,3 hPa 0,0 mm 0,1 mm nein 4,8 km/h 9,7 km/h 0,0 mm/h W 0,000 klux 402,0 W/qm 1,1 nein 6,00 µg/m³ 3,50 µg/m³ 2,50 µg/m³ 19 AQI 09:00
09:0515,7 °C 76 % 1014,3 hPa 0,0 mm 0,0 mm nein 6,4 km/h 17,7 km/h 0,0 mm/h WSW 0,000 klux 345,0 W/qm 1,0 nein 6,00 µg/m³ 3,50 µg/m³ 2,50 µg/m³ 19 AQI 09:05
09:1015,7 °C 76 % 1014,1 hPa 0,0 mm 0,0 mm nein 6,4 km/h 12,9 km/h 0,0 mm/h WNW 0,000 klux 271,0 W/qm 1,0 nein 7,00 µg/m³ 3,50 µg/m³ 2,00 µg/m³ 19 AQI 09:10
09:1515,8 °C 76 % 1014,1 hPa 0,0 mm 0,0 mm nein 6,4 km/h 12,9 km/h 0,0 mm/h WNW 0,000 klux 342,0 W/qm 1,3 nein 7,00 µg/m³ 4,00 µg/m³ 2,00 µg/m³ 22 AQI 09:15
09:2016,5 °C 74 % 1013,9 hPa 0,0 mm 0,0 mm nein 6,4 km/h 12,9 km/h 0,0 mm/h WNW 0,000 klux 575,0 W/qm 1,6 nein 6,00 µg/m³ 3,50 µg/m³ 2,50 µg/m³ 19 AQI 09:20
09:2516,6 °C 73 % 1013,9 hPa 0,0 mm 0,0 mm nein 8,0 km/h 14,5 km/h 0,0 mm/h WNW 0,000 klux 448,0 W/qm 1,5 nein 7,00 µg/m³ 4,00 µg/m³ 2,50 µg/m³ 22 AQI 09:25
09:3016,8 °C 72 % 1013,8 hPa 0,0 mm 0,0 mm nein 9,7 km/h 17,7 km/h 0,0 mm/h NW 0,000 klux 500,0 W/qm 1,5 nein 7,50 µg/m³ 4,50 µg/m³ 2,50 µg/m³ 25 AQI 09:30
09:3517,1 °C 71 % 1013,7 hPa 0,0 mm 0,0 mm nein 6,4 km/h 19,3 km/h 0,0 mm/h W 0,000 klux 443,0 W/qm 1,4 nein 6,00 µg/m³ 3,00 µg/m³ 2,50 µg/m³ 16 AQI 09:35
09:4017,0 °C 71 % 1013,8 hPa 0,0 mm 0,0 mm nein 6,4 km/h 14,5 km/h 0,0 mm/h WNW 0,000 klux 301,0 W/qm 1,2 nein 6,00 µg/m³ 3,00 µg/m³ 2,00 µg/m³ 16 AQI 09:40
09:4516,8 °C 70 % 1013,9 hPa 0,0 mm 0,0 mm nein 8,0 km/h 16,1 km/h 0,0 mm/h WNW 0,000 klux 271,0 W/qm 1,2 nein 4,50 µg/m³ 2,50 µg/m³ 2,00 µg/m³ 14 AQI 09:45
09:5016,6 °C 71 % 1013,8 hPa 0,0 mm 0,0 mm nein 8,0 km/h 14,5 km/h 0,0 mm/h NW 0,000 klux 263,0 W/qm 1,3 nein 8,50 µg/m³ 4,00 µg/m³ 2,00 µg/m³ 22 AQI 09:50
09:5516,7 °C 71 % 1013,7 hPa 0,0 mm 0,0 mm nein 8,0 km/h 14,5 km/h 0,0 mm/h WNW 0,000 klux 391,0 W/qm 1,7 nein 4,00 µg/m³ 2,50 µg/m³ 2,00 µg/m³ 14 AQI 09:55
UhrzeitTemperaturLuftfeuchteLuftdruckNiederschlagEvapotranspirationNiederschlag?WindWindböenRegenrateWindrichtungHelligkeitSolarstrahlungUV-IndexSonne?Feinstaub 10µmFeinstaub 2,5µmFeinstaub 1µmLuftqualitätsindexUhrzeit
10:0017,4 °C 69 % 1013,6 hPa 0,0 mm 0,3 mm nein 8,0 km/h 16,1 km/h 0,0 mm/h W 0,000 klux 839,0 W/qm 2,3 nein 5,00 µg/m³ 2,50 µg/m³ 2,00 µg/m³ 14 AQI 10:00
10:0517,8 °C 67 % 1013,5 hPa 0,0 mm 0,0 mm nein 6,4 km/h 14,5 km/h 0,0 mm/h WSW 0,000 klux 627,0 W/qm 2,1 nein 5,00 µg/m³ 3,00 µg/m³ 2,00 µg/m³ 16 AQI 10:05
10:1018,3 °C 65 % 1013,4 hPa 0,0 mm 0,0 mm nein 8,0 km/h 16,1 km/h 0,0 mm/h W 0,000 klux 939,0 W/qm 2,7 nein 5,00 µg/m³ 3,00 µg/m³ 2,00 µg/m³ 16 AQI 10:10
10:1518,8 °C 65 % 1013,4 hPa 0,0 mm 0,0 mm nein 8,0 km/h 17,7 km/h 0,0 mm/h W 0,000 klux 910,0 W/qm 2,8 nein 5,50 µg/m³ 3,00 µg/m³ 2,00 µg/m³ 16 AQI 10:15
10:2018,6 °C 65 % 1013,3 hPa 0,0 mm 0,0 mm nein 6,4 km/h 16,1 km/h 0,0 mm/h WNW 0,000 klux 678,0 W/qm 2,2 nein 5,00 µg/m³ 2,50 µg/m³ 2,00 µg/m³ 14 AQI 10:20
10:2518,4 °C 65 % 1013,3 hPa 0,0 mm 0,0 mm nein 9,7 km/h 20,9 km/h 0,0 mm/h WNW 0,000 klux 447,0 W/qm 1,9 nein 12,50 µg/m³ 5,50 µg/m³ 2,00 µg/m³ 30 AQI 10:25
10:3018,3 °C 65 % 1013,2 hPa 0,0 mm 0,0 mm nein 8,0 km/h 14,5 km/h 0,0 mm/h W 0,000 klux 446,0 W/qm 1,9 nein 9,00 µg/m³ 4,00 µg/m³ 2,00 µg/m³ 22 AQI 10:30
10:3518,4 °C 64 % 1013,3 hPa 0,0 mm 0,0 mm nein 8,0 km/h 17,7 km/h 0,0 mm/h WNW 0,000 klux 505,0 W/qm 2,0 nein 3,00 µg/m³ 2,00 µg/m³ 2,00 µg/m³ 11 AQI 10:35
10:4018,7 °C 65 % 1013,3 hPa 0,0 mm 0,0 mm nein 6,4 km/h 16,1 km/h 0,0 mm/h W 0,000 klux 438,0 W/qm 1,9 nein 4,50 µg/m³ 3,00 µg/m³ 2,00 µg/m³ 16 AQI 10:40
10:4518,5 °C 65 % 1013,2 hPa 0,0 mm 0,0 mm nein 6,4 km/h 12,9 km/h 0,0 mm/h WNW 0,000 klux 421,0 W/qm 1,8 nein 4,00 µg/m³ 2,00 µg/m³ 2,00 µg/m³ 11 AQI 10:45
10:5018,6 °C 63 % 1013,2 hPa 0,0 mm 0,0 mm nein 9,7 km/h 17,7 km/h 0,0 mm/h WNW 0,000 klux 463,0 W/qm 1,9 nein 3,00 µg/m³ 2,00 µg/m³ 2,00 µg/m³ 11 AQI 10:50
10:5518,8 °C 62 % 1013,2 hPa 0,0 mm 0,0 mm nein 8,0 km/h 19,3 km/h 0,0 mm/h WNW 0,000 klux 483,0 W/qm 2,1 nein 5,00 µg/m³ 2,50 µg/m³ 2,00 µg/m³ 14 AQI 10:55
11:0018,9 °C 61 % 1013,0 hPa 0,0 mm 0,4 mm nein 9,7 km/h 17,7 km/h 0,0 mm/h WNW 0,000 klux 520,0 W/qm 2,3 nein 3,50 µg/m³ 2,00 µg/m³ 2,00 µg/m³ 11 AQI 11:00
11:0519,3 °C 64 % 1013,1 hPa 0,0 mm 0,0 mm nein 6,4 km/h 17,7 km/h 0,0 mm/h W 0,000 klux 562,0 W/qm 2,4 nein 4,50 µg/m³ 2,50 µg/m³ 2,00 µg/m³ 14 AQI 11:05
11:1019,1 °C 61 % 1013,0 hPa 0,0 mm 0,0 mm nein 8,0 km/h 17,7 km/h 0,0 mm/h W 0,000 klux 471,0 W/qm 2,1 nein 2,50 µg/m³ 1,50 µg/m³ 1,50 µg/m³ 8 AQI 11:10
11:1519,1 °C 61 % 1013,0 hPa 0,0 mm 0,0 mm nein 6,4 km/h 14,5 km/h 0,0 mm/h W 0,000 klux 521,0 W/qm 2,3 nein 2,50 µg/m³ 1,50 µg/m³ 1,50 µg/m³ 8 AQI 11:15
11:2019,6 °C 62 % 1012,8 hPa 0,0 mm 0,0 mm nein 4,8 km/h 11,3 km/h 0,0 mm/h W 0,000 klux 687,0 W/qm 2,9 nein 5,00 µg/m³ 2,50 µg/m³ 2,00 µg/m³ 14 AQI 11:20
11:2520,4 °C 61 % 1012,7 hPa 0,0 mm 0,0 mm nein 6,4 km/h 14,5 km/h 0,0 mm/h W 0,000 klux 801,0 W/qm 3,2 nein 3,50 µg/m³ 2,00 µg/m³ 1,50 µg/m³ 11 AQI 11:25
11:3020,1 °C 59 % 1012,7 hPa 0,0 mm 0,0 mm nein 8,0 km/h 17,7 km/h 0,0 mm/h WNW 0,000 klux 773,0 W/qm 3,1 nein 3,00 µg/m³ 2,00 µg/m³ 2,00 µg/m³ 11 AQI 11:30
11:3520,2 °C 62 % 1012,7 hPa 0,0 mm 0,0 mm nein 4,8 km/h 14,5 km/h 0,0 mm/h NW 0,000 klux 630,0 W/qm 2,7 nein 3,00 µg/m³ 1,50 µg/m³ 1,50 µg/m³ 8 AQI 11:35
11:4019,9 °C 59 % 1012,8 hPa 0,0 mm 0,0 mm nein 8,0 km/h 16,1 km/h 0,0 mm/h WNW 0,000 klux 523,0 W/qm 2,3 nein 4,00 µg/m³ 2,00 µg/m³ 1,50 µg/m³ 11 AQI 11:40
11:4519,6 °C 61 % 1012,8 hPa 0,0 mm 0,0 mm nein 9,7 km/h 17,7 km/h 0,0 mm/h WNW 0,000 klux 450,0 W/qm 2,2 nein 3,50 µg/m³ 1,50 µg/m³ 1,00 µg/m³ 8 AQI 11:45
11:5019,8 °C 59 % 1012,8 hPa 0,0 mm 0,0 mm nein 9,7 km/h 17,7 km/h 0,0 mm/h NW 0,000 klux 587,0 W/qm 2,6 nein 2,50 µg/m³ 1,50 µg/m³ 1,50 µg/m³ 8 AQI 11:50
11:5519,9 °C 58 % 1012,8 hPa 0,0 mm 0,0 mm nein 9,7 km/h 17,7 km/h 0,0 mm/h WNW 0,000 klux 534,0 W/qm 2,5 nein 48,50 µg/m³ 14,50 µg/m³ 1,00 µg/m³ 61 AQI 11:55
UhrzeitTemperaturLuftfeuchteLuftdruckNiederschlagEvapotranspirationNiederschlag?WindWindböenRegenrateWindrichtungHelligkeitSolarstrahlungUV-IndexSonne?Feinstaub 10µmFeinstaub 2,5µmFeinstaub 1µmLuftqualitätsindexUhrzeit
12:0019,7 °C 58 % 1012,8 hPa 0,0 mm 0,4 mm nein 12,9 km/h 22,5 km/h 0,0 mm/h NW 0,000 klux 473,0 W/qm 2,3 nein 4,00 µg/m³ 1,50 µg/m³ 1,50 µg/m³ 8 AQI 12:00
12:0519,6 °C 59 % 1012,8 hPa 0,0 mm 0,0 mm nein 11,3 km/h 20,9 km/h 0,0 mm/h WNW 0,000 klux 441,0 W/qm 2,2 nein 2,50 µg/m³ 1,50 µg/m³ 1,50 µg/m³ 8 AQI 12:05
12:1019,2 °C 59 % 1012,8 hPa 0,0 mm 0,0 mm nein 9,7 km/h 19,3 km/h 0,0 mm/h NW 0,000 klux 280,0 W/qm 1,4 nein 18,00 µg/m³ 7,00 µg/m³ 3,00 µg/m³ 38 AQI 12:10
12:1518,7 °C 60 % 1012,9 hPa 0,0 mm 0,0 mm nein 11,3 km/h 20,9 km/h 0,0 mm/h WNW 0,000 klux 189,0 W/qm 1,0 nein 4,00 µg/m³ 2,00 µg/m³ 2,00 µg/m³ 11 AQI 12:15
12:2018,7 °C 62 % 1012,8 hPa 0,0 mm 0,0 mm nein 8,0 km/h 16,1 km/h 0,0 mm/h WNW 0,000 klux 273,0 W/qm 1,6 nein 4,50 µg/m³ 2,50 µg/m³ 2,00 µg/m³ 14 AQI 12:20
12:2519,3 °C 63 % 1012,7 hPa 0,0 mm 0,0 mm nein 6,4 km/h 16,1 km/h 0,0 mm/h NW 0,000 klux 438,0 W/qm 2,3 nein 10,50 µg/m³ 4,50 µg/m³ 2,00 µg/m³ 25 AQI 12:25
12:3019,3 °C 61 % 1012,6 hPa 0,0 mm 0,0 mm nein 8,0 km/h 16,1 km/h 0,0 mm/h NW 0,000 klux 341,0 W/qm 1,7 nein 6,50 µg/m³ 3,00 µg/m³ 2,00 µg/m³ 16 AQI 12:30
12:3519,2 °C 61 % 1012,6 hPa 0,0 mm 0,0 mm nein 9,7 km/h 17,7 km/h 0,0 mm/h WNW 0,000 klux 331,0 W/qm 1,8 nein 7,50 µg/m³ 4,50 µg/m³ 3,50 µg/m³ 25 AQI 12:35
12:4019,4 °C 61 % 1012,4 hPa 0,0 mm 0,0 mm nein 8,0 km/h 16,1 km/h 0,0 mm/h NNW 0,000 klux 380,0 W/qm 1,9 nein - - - - 12:40
Gesamt: 13,5 °C 76 % 1015,8 hPa 0,0 mm 1,4 mm nein 5,4 km/h 11,2 km/h 0,0 mm/h 0 0,000 klux 177,3 W/qm 0,6 nein 5,73 µg/m³ 3,15 µg/m³ 2,14 µg/m³ 17 AQI

Insgesamt 153 Zeilen mal 18 Spalten = 2754 Werte werden angezeigt.

www.wetter-rosstal.de   •   www.wetter-franken.de   •   www.lightningmaps.org   •   Start   •   Kontakt / Datenschutz